AIC259W EDDH-EDDP
Flight info
| Callsign | AIC259W |
|---|---|
| Flight time | 0h 53m |
| Altitude | 23000 |
| Route | AMLUH2G/33 AMLUH M852 DENIX Z113 SAS Z88 UPDAT T236 ADMOS T959 KOJEC KOJEC1V |
| Aircraft | A20N/M-SDE2E3FGHIRWXY/LB1 |
Departure
| Time | 2026-04-25 20:04 |
|---|---|
| Airport | Hamburg Helmut Schmidt Airport (EDDH) |
Arrival
| Time | 2026-04-25 20:57 |
|---|---|
| Airport | Leipzig/Halle Airport (EDDP) |
| Time | Latitude | Longitude | Altitude | Speed | Heading |
|---|---|---|---|---|---|
| 2026-04-25 19:33 | 53.62694 | 9.98719 | 38 ft | 0 kts | 63° |
| 2026-04-25 19:47 | 53.62691 | 9.98709 | 38 ft | 1 kts | 64° |
| 2026-04-25 19:48 | 53.62689 | 9.98702 | 38 ft | 0 kts | 51° |
| 2026-04-25 19:48 | 53.62679 | 9.98688 | 38 ft | 2 kts | 21° |
| 2026-04-25 19:48 | 53.62664 | 9.98686 | 38 ft | 0 kts | 334° |
| 2026-04-25 19:49 | 53.62662 | 9.98688 | 38 ft | 0 kts | 298° |
| 2026-04-25 19:49 | 53.62661 | 9.98693 | 38 ft | 0 kts | 243° |
| 2026-04-25 19:50 | 53.62667 | 9.98698 | 38 ft | 0 kts | 152° |
| 2026-04-25 19:52 | 53.62662 | 9.98702 | 38 ft | 2 kts | 157° |
| 2026-04-25 19:52 | 53.62642 | 9.98714 | 39 ft | 3 kts | 163° |
| 2026-04-25 19:52 | 53.62619 | 9.98727 | 40 ft | 3 kts | 156° |
| 2026-04-25 19:53 | 53.62598 | 9.98744 | 41 ft | 3 kts | 154° |
| 2026-04-25 19:53 | 53.62574 | 9.98764 | 42 ft | 4 kts | 154° |
| 2026-04-25 19:53 | 53.62543 | 9.98792 | 43 ft | 6 kts | 140° |
| 2026-04-25 19:53 | 53.62537 | 9.98871 | 43 ft | 8 kts | 82° |
| 2026-04-25 19:54 | 53.62551 | 9.98993 | 44 ft | 11 kts | 80° |
| 2026-04-25 19:54 | 53.62566 | 9.99130 | 45 ft | 12 kts | 79° |
| 2026-04-25 19:54 | 53.62586 | 9.99302 | 42 ft | 17 kts | 79° |
| 2026-04-25 19:54 | 53.62594 | 9.99372 | 41 ft | 18 kts | 79° |
| 2026-04-25 19:55 | 53.62626 | 9.99657 | 40 ft | 12 kts | 79° |
| 2026-04-25 19:55 | 53.62632 | 9.99711 | 39 ft | 0 kts | 79° |
| 2026-04-25 20:02 | 53.62637 | 9.99750 | 39 ft | 12 kts | 78° |
| 2026-04-25 20:02 | 53.62699 | 9.99864 | 37 ft | 15 kts | 8° |
| 2026-04-25 20:03 | 53.62757 | 9.99841 | 35 ft | 0 kts | 333° |
| 2026-04-25 20:03 | 53.62761 | 9.99837 | 34 ft | 0 kts | 333° |
| 2026-04-25 20:03 | 53.62874 | 9.99741 | 31 ft | 57 kts | 333° |
| 2026-04-25 20:04 | 53.63480 | 9.99215 | 35 ft | 135 kts | 333° |
| 2026-04-25 20:04 | 53.64489 | 9.98362 | 221 ft | 179 kts | 333° |
| 2026-04-25 20:04 | 53.65629 | 9.97380 | 902 ft | 191 kts | 333° |
| 2026-04-25 20:04 | 53.66789 | 9.96395 | 1946 ft | 188 kts | 333° |
| 2026-04-25 20:05 | 53.67938 | 9.95414 | 2693 ft | 194 kts | 333° |
| 2026-04-25 20:05 | 53.69275 | 9.94643 | 3170 ft | 215 kts | 354° |
| 2026-04-25 20:05 | 53.70807 | 9.94556 | 3854 ft | 226 kts | 0° |
| 2026-04-25 20:05 | 53.72348 | 9.94844 | 4443 ft | 226 kts | 22° |
| 2026-04-25 20:06 | 53.73576 | 9.96393 | 4796 ft | 225 kts | 56° |
| 2026-04-25 20:06 | 53.74112 | 9.98835 | 5024 ft | 225 kts | 83° |
| 2026-04-25 20:06 | 53.74262 | 10.01472 | 5252 ft | 228 kts | 87° |
| 2026-04-25 20:06 | 53.74067 | 10.04107 | 5469 ft | 231 kts | 111° |
| 2026-04-25 20:07 | 53.73289 | 10.06667 | 5720 ft | 258 kts | 120° |
| 2026-04-25 20:07 | 53.72353 | 10.09327 | 5946 ft | 270 kts | 121° |
| 2026-04-25 20:07 | 53.71406 | 10.12038 | 6192 ft | 272 kts | 120° |
| 2026-04-25 20:07 | 53.70449 | 10.14829 | 6446 ft | 273 kts | 120° |
| 2026-04-25 20:08 | 53.69508 | 10.17614 | 6696 ft | 274 kts | 120° |
| 2026-04-25 20:08 | 53.68328 | 10.20102 | 6929 ft | 275 kts | 142° |
| 2026-04-25 20:08 | 53.66639 | 10.21497 | 7183 ft | 275 kts | 163° |
| 2026-04-25 20:08 | 53.64782 | 10.22325 | 7436 ft | 277 kts | 165° |
| 2026-04-25 20:09 | 53.62918 | 10.23126 | 7686 ft | 278 kts | 165° |
| 2026-04-25 20:09 | 53.61028 | 10.23953 | 7939 ft | 279 kts | 165° |
| 2026-04-25 20:09 | 53.59172 | 10.24781 | 8187 ft | 280 kts | 165° |
| 2026-04-25 20:09 | 53.57271 | 10.25641 | 8440 ft | 281 kts | 165° |
| 2026-04-25 20:10 | 53.56011 | 10.26215 | 8607 ft | 282 kts | 165° |
| 2026-04-25 20:10 | 53.53486 | 10.27369 | 8941 ft | 283 kts | 164° |
| 2026-04-25 20:10 | 53.51605 | 10.28230 | 9189 ft | 284 kts | 164° |
| 2026-04-25 20:10 | 53.49699 | 10.29101 | 9439 ft | 285 kts | 164° |
| 2026-04-25 20:11 | 53.47769 | 10.29982 | 9692 ft | 287 kts | 164° |
| 2026-04-25 20:11 | 53.45856 | 10.30854 | 9926 ft | 288 kts | 164° |
| 2026-04-25 20:11 | 53.43917 | 10.31789 | 9981 ft | 288 kts | 160° |
| 2026-04-25 20:11 | 53.42094 | 10.33064 | 9989 ft | 288 kts | 153° |
| 2026-04-25 20:12 | 53.40340 | 10.34722 | 9993 ft | 288 kts | 149° |
| 2026-04-25 20:12 | 53.38639 | 10.36443 | 9994 ft | 288 kts | 148° |
| 2026-04-25 20:12 | 53.36933 | 10.38183 | 9995 ft | 288 kts | 148° |
| 2026-04-25 20:12 | 53.36356 | 10.38771 | 9995 ft | 288 kts | 148° |
| 2026-04-25 20:13 | 53.33505 | 10.41667 | 9995 ft | 288 kts | 148° |
| 2026-04-25 20:13 | 53.31791 | 10.43333 | 9991 ft | 288 kts | 155° |
| 2026-04-25 20:13 | 53.29867 | 10.43969 | 9987 ft | 286 kts | 182° |
| 2026-04-25 20:13 | 53.27864 | 10.43602 | 9994 ft | 287 kts | 188° |
| 2026-04-25 20:14 | 53.25914 | 10.43098 | 9995 ft | 288 kts | 188° |
| 2026-04-25 20:14 | 53.23925 | 10.42619 | 9995 ft | 288 kts | 187° |
| 2026-04-25 20:14 | 53.21949 | 10.42198 | 10133 ft | 289 kts | 186° |
| 2026-04-25 20:14 | 53.19861 | 10.41796 | 10470 ft | 312 kts | 186° |
| 2026-04-25 20:15 | 53.17641 | 10.41399 | 10801 ft | 333 kts | 185° |
| 2026-04-25 20:15 | 53.15290 | 10.40997 | 11127 ft | 348 kts | 185° |
| 2026-04-25 20:15 | 53.12872 | 10.40596 | 11453 ft | 352 kts | 185° |
| 2026-04-25 20:15 | 53.10439 | 10.40200 | 11779 ft | 354 kts | 185° |
| 2026-04-25 20:16 | 53.08005 | 10.39807 | 12103 ft | 355 kts | 185° |
| 2026-04-25 20:16 | 53.05544 | 10.39412 | 12429 ft | 357 kts | 185° |
| 2026-04-25 20:16 | 53.03061 | 10.39016 | 12756 ft | 359 kts | 185° |
| 2026-04-25 20:16 | 53.00559 | 10.38617 | 13084 ft | 361 kts | 185° |
| 2026-04-25 20:17 | 52.98080 | 10.38223 | 13408 ft | 362 kts | 185° |
| 2026-04-25 20:17 | 52.95577 | 10.37826 | 13734 ft | 364 kts | 185° |
| 2026-04-25 20:17 | 52.93047 | 10.37425 | 14075 ft | 366 kts | 185° |
| 2026-04-25 20:17 | 52.90512 | 10.37025 | 14477 ft | 368 kts | 185° |
| 2026-04-25 20:18 | 52.87963 | 10.36623 | 14878 ft | 370 kts | 185° |
| 2026-04-25 20:18 | 52.85392 | 10.36219 | 15281 ft | 372 kts | 185° |
| 2026-04-25 20:18 | 52.82824 | 10.35817 | 15680 ft | 375 kts | 185° |
| 2026-04-25 20:18 | 52.80229 | 10.35409 | 16082 ft | 377 kts | 185° |
| 2026-04-25 20:19 | 52.77615 | 10.34999 | 16484 ft | 379 kts | 185° |
| 2026-04-25 20:19 | 52.75005 | 10.34590 | 16883 ft | 381 kts | 185° |
| 2026-04-25 20:19 | 52.72334 | 10.34171 | 17288 ft | 384 kts | 185° |
| 2026-04-25 20:19 | 52.69687 | 10.33757 | 17688 ft | 386 kts | 185° |
| 2026-04-25 20:20 | 52.67027 | 10.33341 | 18087 ft | 388 kts | 185° |
| 2026-04-25 20:20 | 52.64349 | 10.32923 | 18487 ft | 391 kts | 185° |
| 2026-04-25 20:20 | 52.61609 | 10.32496 | 18894 ft | 393 kts | 185° |
| 2026-04-25 20:20 | 52.58916 | 10.32076 | 19291 ft | 395 kts | 185° |
| 2026-04-25 20:21 | 52.56177 | 10.31651 | 19692 ft | 398 kts | 185° |
| 2026-04-25 20:21 | 52.53419 | 10.31223 | 20094 ft | 400 kts | 185° |
| 2026-04-25 20:21 | 52.50631 | 10.30790 | 20497 ft | 403 kts | 185° |
| 2026-04-25 20:21 | 52.47876 | 10.30364 | 20893 ft | 405 kts | 185° |
| 2026-04-25 20:22 | 52.45055 | 10.29927 | 21296 ft | 407 kts | 185° |
| 2026-04-25 20:22 | 52.44114 | 10.29782 | 21430 ft | 408 kts | 185° |
| 2026-04-25 20:22 | 52.39373 | 10.29050 | 22101 ft | 412 kts | 185° |
| 2026-04-25 20:22 | 52.36542 | 10.28614 | 22498 ft | 415 kts | 185° |
| 2026-04-25 20:23 | 52.33684 | 10.28174 | 22871 ft | 418 kts | 185° |
| 2026-04-25 20:23 | 52.30765 | 10.27724 | 22980 ft | 418 kts | 185° |
| 2026-04-25 20:23 | 52.27889 | 10.27281 | 22985 ft | 418 kts | 185° |
| 2026-04-25 20:23 | 52.25017 | 10.26841 | 22989 ft | 418 kts | 185° |
| 2026-04-25 20:24 | 52.22096 | 10.26393 | 22991 ft | 418 kts | 185° |
| 2026-04-25 20:24 | 52.19232 | 10.25956 | 22992 ft | 418 kts | 185° |
| 2026-04-25 20:24 | 52.16358 | 10.25517 | 22993 ft | 418 kts | 185° |
| 2026-04-25 20:24 | 52.13441 | 10.25074 | 22904 ft | 418 kts | 185° |
| 2026-04-25 20:25 | 52.10592 | 10.24642 | 22705 ft | 416 kts | 185° |
| 2026-04-25 20:25 | 52.07709 | 10.24207 | 22504 ft | 414 kts | 185° |
| 2026-04-25 20:25 | 52.04861 | 10.23776 | 22306 ft | 413 kts | 185° |
| 2026-04-25 20:25 | 52.02014 | 10.23345 | 22106 ft | 412 kts | 185° |
| 2026-04-25 20:26 | 51.99144 | 10.22931 | 21903 ft | 411 kts | 182° |
| 2026-04-25 20:26 | 51.96333 | 10.23364 | 21685 ft | 409 kts | 165° |
| 2026-04-25 20:26 | 51.93768 | 10.25232 | 21331 ft | 406 kts | 146° |
| 2026-04-25 20:26 | 51.91696 | 10.28308 | 20840 ft | 405 kts | 127° |
| 2026-04-25 20:27 | 51.90339 | 10.32191 | 20201 ft | 397 kts | 111° |
| 2026-04-25 20:27 | 51.89373 | 10.36364 | 19574 ft | 396 kts | 110° |
| 2026-04-25 20:27 | 51.88428 | 10.40466 | 18870 ft | 392 kts | 110° |
| 2026-04-25 20:27 | 51.87476 | 10.44562 | 18168 ft | 388 kts | 110° |
| 2026-04-25 20:28 | 51.86527 | 10.48612 | 17503 ft | 385 kts | 110° |
| 2026-04-25 20:28 | 51.85580 | 10.52627 | 17109 ft | 381 kts | 110° |
| 2026-04-25 20:28 | 51.84644 | 10.56583 | 17005 ft | 381 kts | 110° |
| 2026-04-25 20:28 | 51.83695 | 10.60577 | 16998 ft | 382 kts | 110° |
| 2026-04-25 20:29 | 51.82741 | 10.64578 | 16996 ft | 382 kts | 110° |
| 2026-04-25 20:29 | 51.81789 | 10.68568 | 16995 ft | 382 kts | 111° |
| 2026-04-25 20:29 | 51.80827 | 10.72601 | 16994 ft | 382 kts | 111° |
| 2026-04-25 20:29 | 51.79881 | 10.76559 | 16994 ft | 382 kts | 111° |
| 2026-04-25 20:30 | 51.78931 | 10.80515 | 16994 ft | 382 kts | 111° |
| 2026-04-25 20:30 | 51.77958 | 10.84562 | 16856 ft | 382 kts | 111° |
| 2026-04-25 20:30 | 51.77010 | 10.88494 | 16482 ft | 379 kts | 111° |
| 2026-04-25 20:30 | 51.76054 | 10.92448 | 16105 ft | 376 kts | 111° |
| 2026-04-25 20:31 | 51.75115 | 10.96328 | 15733 ft | 374 kts | 111° |
| 2026-04-25 20:31 | 51.74163 | 11.00249 | 15354 ft | 372 kts | 111° |
| 2026-04-25 20:31 | 51.73226 | 11.04109 | 14980 ft | 370 kts | 111° |
| 2026-04-25 20:31 | 51.72299 | 11.07916 | 14608 ft | 368 kts | 111° |
| 2026-04-25 20:32 | 51.71369 | 11.11727 | 14234 ft | 366 kts | 111° |
| 2026-04-25 20:32 | 51.70212 | 11.15352 | 13844 ft | 364 kts | 126° |
| 2026-04-25 20:32 | 51.68582 | 11.18475 | 13474 ft | 362 kts | 132° |
| 2026-04-25 20:32 | 51.66910 | 11.21398 | 13104 ft | 360 kts | 132° |
| 2026-04-25 20:33 | 51.65237 | 11.24366 | 12729 ft | 358 kts | 131° |
| 2026-04-25 20:33 | 51.63592 | 11.27368 | 12343 ft | 355 kts | 131° |
| 2026-04-25 20:33 | 51.61985 | 11.30360 | 11968 ft | 354 kts | 130° |
| 2026-04-25 20:33 | 51.61446 | 11.31374 | 11841 ft | 353 kts | 130° |
| 2026-04-25 20:34 | 51.58825 | 11.36331 | 11219 ft | 350 kts | 130° |
| 2026-04-25 20:34 | 51.57257 | 11.39304 | 10844 ft | 348 kts | 130° |
| 2026-04-25 20:34 | 51.55694 | 11.42264 | 10460 ft | 339 kts | 130° |
| 2026-04-25 20:34 | 51.54240 | 11.45008 | 10085 ft | 316 kts | 130° |
| 2026-04-25 20:35 | 51.52848 | 11.47625 | 9702 ft | 296 kts | 129° |
| 2026-04-25 20:35 | 51.51779 | 11.50299 | 9316 ft | 284 kts | 110° |
| 2026-04-25 20:35 | 51.51405 | 11.53344 | 8942 ft | 281 kts | 89° |
| 2026-04-25 20:35 | 51.51537 | 11.56502 | 8571 ft | 281 kts | 84° |
| 2026-04-25 20:36 | 51.51722 | 11.59602 | 8204 ft | 281 kts | 84° |
| 2026-04-25 20:36 | 51.51903 | 11.62698 | 7830 ft | 279 kts | 84° |
| 2026-04-25 20:36 | 51.52073 | 11.65792 | 7454 ft | 278 kts | 85° |
| 2026-04-25 20:36 | 51.52233 | 11.68834 | 7082 ft | 276 kts | 85° |
| 2026-04-25 20:37 | 51.52392 | 11.71921 | 6703 ft | 274 kts | 85° |
| 2026-04-25 20:37 | 51.52547 | 11.74955 | 6328 ft | 273 kts | 85° |
| 2026-04-25 20:37 | 51.52700 | 11.77969 | 5954 ft | 272 kts | 85° |
| 2026-04-25 20:37 | 51.52851 | 11.80975 | 5579 ft | 270 kts | 85° |
| 2026-04-25 20:38 | 51.52999 | 11.83940 | 5208 ft | 269 kts | 85° |
| 2026-04-25 20:38 | 51.53148 | 11.86917 | 4963 ft | 265 kts | 85° |
| 2026-04-25 20:38 | 51.53296 | 11.89889 | 4948 ft | 267 kts | 85° |
| 2026-04-25 20:38 | 51.53441 | 11.92840 | 4945 ft | 267 kts | 85° |
| 2026-04-25 20:39 | 51.53587 | 11.95814 | 4943 ft | 267 kts | 85° |
| 2026-04-25 20:39 | 51.53733 | 11.98781 | 4942 ft | 267 kts | 85° |
| 2026-04-25 20:39 | 51.53878 | 12.01765 | 4942 ft | 267 kts | 85° |
| 2026-04-25 20:39 | 51.53924 | 12.02731 | 4942 ft | 267 kts | 85° |
| 2026-04-25 20:40 | 51.54162 | 12.07659 | 4942 ft | 267 kts | 85° |
| 2026-04-25 20:40 | 51.54304 | 12.10630 | 4938 ft | 264 kts | 85° |
| 2026-04-25 20:40 | 51.54440 | 12.13502 | 4933 ft | 248 kts | 85° |
| 2026-04-25 20:40 | 51.54565 | 12.16145 | 4929 ft | 233 kts | 85° |
| 2026-04-25 20:41 | 51.54684 | 12.18658 | 4951 ft | 219 kts | 85° |
| 2026-04-25 20:41 | 51.54794 | 12.21003 | 4998 ft | 202 kts | 85° |
| 2026-04-25 20:41 | 51.54897 | 12.23173 | 4946 ft | 185 kts | 85° |
| 2026-04-25 20:41 | 51.54987 | 12.25101 | 4928 ft | 165 kts | 85° |
| 2026-04-25 20:42 | 51.55070 | 12.26869 | 4798 ft | 155 kts | 85° |
| 2026-04-25 20:42 | 51.55148 | 12.28539 | 4552 ft | 147 kts | 85° |
| 2026-04-25 20:42 | 51.55221 | 12.30133 | 4309 ft | 141 kts | 85° |
| 2026-04-25 20:42 | 51.55294 | 12.31696 | 4088 ft | 141 kts | 85° |
| 2026-04-25 20:43 | 51.55365 | 12.33255 | 3954 ft | 140 kts | 85° |
| 2026-04-25 20:43 | 51.55437 | 12.34823 | 3950 ft | 140 kts | 85° |
| 2026-04-25 20:43 | 51.55508 | 12.36383 | 3945 ft | 140 kts | 85° |
| 2026-04-25 20:43 | 51.55578 | 12.37936 | 3943 ft | 140 kts | 85° |
| 2026-04-25 20:44 | 51.55650 | 12.39522 | 3958 ft | 151 kts | 85° |
| 2026-04-25 20:44 | 51.55738 | 12.41504 | 4000 ft | 203 kts | 85° |
| 2026-04-25 20:44 | 51.55847 | 12.43951 | 3887 ft | 232 kts | 85° |
| 2026-04-25 20:44 | 51.55964 | 12.46593 | 3919 ft | 238 kts | 85° |
| 2026-04-25 20:45 | 51.56079 | 12.49184 | 3928 ft | 232 kts | 85° |
| 2026-04-25 20:45 | 51.56193 | 12.51774 | 3935 ft | 232 kts | 85° |
| 2026-04-25 20:45 | 51.56305 | 12.54331 | 3939 ft | 232 kts | 85° |
| 2026-04-25 20:45 | 51.56420 | 12.56935 | 3941 ft | 232 kts | 85° |
| 2026-04-25 20:46 | 51.56533 | 12.59525 | 3941 ft | 232 kts | 85° |
| 2026-04-25 20:46 | 51.56644 | 12.62102 | 3942 ft | 232 kts | 85° |
| 2026-04-25 20:46 | 51.56755 | 12.64666 | 3942 ft | 232 kts | 85° |
| 2026-04-25 20:46 | 51.56866 | 12.67265 | 3942 ft | 232 kts | 86° |
| 2026-04-25 20:47 | 51.56975 | 12.69837 | 3942 ft | 232 kts | 86° |
| 2026-04-25 20:47 | 51.57083 | 12.72386 | 3942 ft | 232 kts | 86° |
| 2026-04-25 20:47 | 51.57111 | 12.75004 | 3930 ft | 232 kts | 101° |
| 2026-04-25 20:47 | 51.56411 | 12.77242 | 3927 ft | 230 kts | 136° |
| 2026-04-25 20:48 | 51.55040 | 12.78515 | 3936 ft | 229 kts | 168° |
| 2026-04-25 20:48 | 51.53435 | 12.78751 | 3957 ft | 231 kts | 178° |
| 2026-04-25 20:48 | 51.51842 | 12.78937 | 3944 ft | 232 kts | 171° |
| 2026-04-25 20:48 | 51.50265 | 12.79488 | 3944 ft | 232 kts | 166° |
| 2026-04-25 20:49 | 51.48660 | 12.79763 | 3923 ft | 231 kts | 190° |
| 2026-04-25 20:49 | 51.47229 | 12.78736 | 3932 ft | 230 kts | 222° |
| 2026-04-25 20:49 | 51.46154 | 12.76833 | 3952 ft | 231 kts | 232° |
| 2026-04-25 20:49 | 51.45193 | 12.74762 | 3946 ft | 232 kts | 234° |
| 2026-04-25 20:50 | 51.44255 | 12.72667 | 3941 ft | 230 kts | 234° |
| 2026-04-25 20:50 | 51.43357 | 12.70645 | 3926 ft | 215 kts | 234° |
| 2026-04-25 20:50 | 51.42661 | 12.68629 | 3899 ft | 202 kts | 259° |
| 2026-04-25 20:50 | 51.42736 | 12.66454 | 3933 ft | 199 kts | 287° |
| 2026-04-25 20:51 | 51.43225 | 12.64369 | 3978 ft | 198 kts | 293° |
| 2026-04-25 20:51 | 51.43766 | 12.62433 | 3961 ft | 184 kts | 295° |
| 2026-04-25 20:51 | 51.44294 | 12.60592 | 3738 ft | 178 kts | 295° |
| 2026-04-25 20:51 | 51.44743 | 12.58795 | 3501 ft | 173 kts | 282° |
| 2026-04-25 20:52 | 51.44751 | 12.56923 | 3287 ft | 166 kts | 262° |
| 2026-04-25 20:52 | 51.44659 | 12.55744 | 3153 ft | 155 kts | 264° |
| 2026-04-25 20:52 | 51.44572 | 12.53593 | 2957 ft | 138 kts | 268° |
| 2026-04-25 20:52 | 51.44543 | 12.52036 | 2949 ft | 138 kts | 268° |
| 2026-04-25 20:53 | 51.44502 | 12.50516 | 2945 ft | 138 kts | 267° |
| 2026-04-25 20:53 | 51.44445 | 12.48964 | 2943 ft | 138 kts | 266° |
| 2026-04-25 20:53 | 51.44378 | 12.47434 | 2930 ft | 138 kts | 266° |
| 2026-04-25 20:53 | 51.44304 | 12.45903 | 2771 ft | 138 kts | 266° |
| 2026-04-25 20:54 | 51.44226 | 12.44383 | 2590 ft | 137 kts | 265° |
| 2026-04-25 20:54 | 51.44149 | 12.42857 | 2407 ft | 137 kts | 265° |
| 2026-04-25 20:54 | 51.44071 | 12.41326 | 2224 ft | 137 kts | 266° |
| 2026-04-25 20:54 | 51.43995 | 12.39821 | 2044 ft | 136 kts | 266° |
| 2026-04-25 20:55 | 51.43919 | 12.38294 | 1862 ft | 136 kts | 266° |
| 2026-04-25 20:55 | 51.43845 | 12.36785 | 1682 ft | 136 kts | 266° |
| 2026-04-25 20:55 | 51.43772 | 12.35290 | 1504 ft | 135 kts | 266° |
| 2026-04-25 20:55 | 51.43700 | 12.33783 | 1324 ft | 135 kts | 265° |
| 2026-04-25 20:56 | 51.43628 | 12.32287 | 1145 ft | 134 kts | 265° |
| 2026-04-25 20:56 | 51.43557 | 12.30789 | 966 ft | 134 kts | 265° |
| 2026-04-25 20:56 | 51.43486 | 12.29310 | 789 ft | 134 kts | 265° |
| 2026-04-25 20:56 | 51.43416 | 12.27824 | 611 ft | 133 kts | 265° |
| 2026-04-25 20:57 | 51.43348 | 12.26359 | 475 ft | 132 kts | 265° |
| 2026-04-25 20:57 | 51.43285 | 12.25019 | 435 ft | 98 kts | 265° |
| 2026-04-25 20:57 | 51.43247 | 12.24200 | 425 ft | 49 kts | 264° |
| 2026-04-25 20:57 | 51.43235 | 12.23936 | 422 ft | 9 kts | 261° |
| 2026-04-25 20:58 | 51.43173 | 12.23739 | 420 ft | 22 kts | 236° |
| 2026-04-25 20:58 | 51.43086 | 12.23533 | 419 ft | 11 kts | 236° |
| 2026-04-25 20:58 | 51.43045 | 12.23451 | 419 ft | 9 kts | 215° |
| 2026-04-25 20:58 | 51.42984 | 12.23436 | 419 ft | 0 kts | 180° |
| 2026-04-25 20:59 | 51.42983 | 12.23436 | 419 ft | 0 kts | 177° |
| 2026-04-25 21:00 | 51.42971 | 12.23437 | 419 ft | 2 kts | 177° |
| 2026-04-25 21:00 | 51.42964 | 12.23437 | 419 ft | 3 kts | 176° |
| 2026-04-25 21:00 | 51.42894 | 12.23315 | 421 ft | 11 kts | 265° |
| 2026-04-25 21:01 | 51.42888 | 12.23175 | 419 ft | 14 kts | 266° |
| 2026-04-25 21:01 | 51.42880 | 12.22999 | 419 ft | 16 kts | 265° |
| 2026-04-25 21:01 | 51.42871 | 12.22813 | 418 ft | 17 kts | 265° |
| 2026-04-25 21:01 | 51.42862 | 12.22622 | 418 ft | 17 kts | 265° |
| 2026-04-25 21:02 | 51.42853 | 12.22432 | 418 ft | 17 kts | 265° |
| 2026-04-25 21:02 | 51.42844 | 12.22237 | 419 ft | 17 kts | 265° |
| 2026-04-25 21:02 | 51.42835 | 12.22039 | 416 ft | 19 kts | 265° |
| 2026-04-25 21:02 | 51.42825 | 12.21823 | 415 ft | 19 kts | 265° |
| 2026-04-25 21:03 | 51.42814 | 12.21598 | 413 ft | 20 kts | 265° |
| 2026-04-25 21:03 | 51.42804 | 12.21374 | 412 ft | 17 kts | 265° |
| 2026-04-25 21:03 | 51.42766 | 12.21230 | 410 ft | 15 kts | 201° |
| 2026-04-25 21:03 | 51.42660 | 12.21183 | 409 ft | 16 kts | 195° |
| 2026-04-25 21:04 | 51.42549 | 12.21135 | 411 ft | 16 kts | 195° |
| 2026-04-25 21:04 | 51.42439 | 12.21086 | 411 ft | 16 kts | 195° |
| 2026-04-25 21:04 | 51.42329 | 12.21038 | 412 ft | 15 kts | 194° |
| 2026-04-25 21:04 | 51.42220 | 12.20991 | 412 ft | 16 kts | 195° |
| 2026-04-25 21:05 | 51.42119 | 12.20947 | 413 ft | 11 kts | 195° |
| 2026-04-25 21:05 | 51.42044 | 12.20915 | 414 ft | 11 kts | 193° |
| 2026-04-25 21:05 | 51.41985 | 12.20971 | 415 ft | 11 kts | 106° |
| 2026-04-25 21:05 | 51.41965 | 12.21086 | 416 ft | 10 kts | 105° |
| 2026-04-25 21:06 | 51.41945 | 12.21209 | 417 ft | 11 kts | 104° |
| 2026-04-25 21:06 | 51.41922 | 12.21338 | 417 ft | 12 kts | 104° |
| 2026-04-25 21:06 | 51.41902 | 12.21459 | 420 ft | 10 kts | 105° |
| 2026-04-25 21:06 | 51.41896 | 12.21496 | 421 ft | 10 kts | 105° |
| 2026-04-25 21:07 | 51.41883 | 12.21571 | 422 ft | 0 kts | 105° |
| 2026-04-25 21:07 | 51.41882 | 12.21578 | 423 ft | 0 kts | 105° |
| 2026-04-25 21:07 | 51.41881 | 12.21583 | 423 ft | 0 kts | 105° |
| 2026-04-25 21:08 | 51.41875 | 12.21618 | 424 ft | 3 kts | 105° |
| 2026-04-25 21:08 | 51.41868 | 12.21654 | 424 ft | 4 kts | 105° |
| 2026-04-25 21:08 | 51.41861 | 12.21694 | 425 ft | 3 kts | 107° |
| 2026-04-25 21:08 | 51.41840 | 12.21759 | 427 ft | 5 kts | 122° |
| 2026-04-25 21:09 | 51.41834 | 12.21850 | 429 ft | 4 kts | 99° |
| 2026-04-25 21:09 | 51.41824 | 12.21912 | 432 ft | 5 kts | 105° |
| 2026-04-25 21:09 | 51.41818 | 12.21948 | 433 ft | 0 kts | 106° |
| 2026-04-25 21:10 | 51.41805 | 12.21982 | 435 ft | 2 kts | 126° |
| 2026-04-25 21:10 | 51.41808 | 12.21972 | 435 ft | 0 kts | 118° |
| 2026-04-25 21:11 | 51.41812 | 12.21962 | 434 ft | 0 kts | 122° |
| 2026-04-25 21:11 | 51.41807 | 12.21971 | 435 ft | 0 kts | 148° |